Corzuela, Argentina
Current Conditions -  °F | °C
As of 4:00 AM on Sunday 23 Nov 2014 (Local Time) from SARE Reporting Station
Clear Clear  
Wind Chill: 63°   Ceiling: Unl
Heat Index: 63°   Visibility: 6mi
Dew Point: 57°   Wind: 3mph
Humidity: 82%   Direction: 110°ESE
Pressure: 29.88"   Gusts: NA
Location:  26.95°S, 60.97°W
Report Text: SARE 230700Z 11003KT CAVOK 17/14 Q1012
Loading
Personal Weather Stations






























Interactive Weather Map New forecast layout! Learn more

10-Day Weather Forecast

Advertisements
Track Severe Weather on mobile